^^
Saratoga-Weather Station Historical Data
Daily Summary for May 25, 2022 Units:  English    Metric   Both
Daily Weekly Monthly Yearly Custom
  High: Low: Average:
Temperature: 68.5 °F 46.8 °F 59.2 °F
Dew Point: 50.9 °F 44.8 °F 48 °F
Humidity: 95% 47% 69%
Wind Speed: 10.1mph 0mph 2.7mph
Wind Gust: 15mph - -
Wind- - West
Pressure: 30.1 in 29.9 in -
Precipitation: 0 in    
Historical Graphs
 
 
Tabular Data for May 25, 2022
Time Temperature Dew Point Pressure Wind Wind Speed Wind Gust Humidity Rainfall Rate (Hourly) solar
00:04 54.5 °F 49.1 °F 29.9 in Calm   1 mph 82% 0 in 0 W/m2
00:09 54.1 °F 48.7 °F 29.9 in Calm   2 mph 82% 0 in 0 W/m2
00:14 54 °F 48.9 °F 29.9 in SW 0.9 mph 3 mph 83% 0 in 0 W/m2
00:19 54 °F 48.9 °F 29.9 in NW 0.9 mph 1 mph 83% 0 in 0 W/m2
00:24 53.8 °F 48.7 °F 29.9 in NW 0.9 mph 1 mph 83% 0 in 0 W/m2
00:29 53.4 °F 48.7 °F 29.9 in Calm   1 mph 84% 0 in 0 W/m2
00:34 53.2 °F 48.6 °F 29.9 in Calm     84% 0 in 0 W/m2
00:39 53.1 °F 48.4 °F 29.9 in Calm   1 mph 84% 0 in 0 W/m2
00:44 52.9 °F 48.6 °F 29.9 in Calm     85% 0 in 0 W/m2
00:49 52.5 °F 48.2 °F 29.9 in Calm     85% 0 in 0 W/m2
00:59 51.8 °F 47.7 °F 29.9 in Calm     86% 0 in 0 W/m2
01:04 51.4 °F 47.5 °F 29.9 in Calm     86% 0 in 0 W/m2
01:09 51.3 °F 47.5 °F 29.9 in Calm     87% 0 in 0 W/m2
01:14 51.1 °F 47.3 °F 29.9 in Calm     87% 0 in 0 W/m2
01:19 50.7 °F 47.3 °F 29.9 in Calm     88% 0 in 0 W/m2
01:24 50.5 °F 47.1 °F 29.9 in Calm     88% 0 in 0 W/m2
01:29 50.2 °F 46.8 °F 29.9 in Calm     88% 0 in 0 W/m2
01:34 50 °F 46.6 °F 29.9 in Calm   2 mph 88% 0 in 0 W/m2
01:39 49.8 °F 46.8 °F 29.9 in Calm     89% 0 in 0 W/m2
01:44 49.6 °F 46.6 °F 29.9 in NW 0.9 mph 2 mph 89% 0 in 0 W/m2
01:49 49.5 °F 46.6 °F 29.9 in NW 0.9 mph 1 mph 90% 0 in 0 W/m2
01:54 49.5 °F 46.6 °F 29.9 in Calm     90% 0 in 0 W/m2
01:59 49.3 °F 46.4 °F 29.9 in NW 0.9 mph 1 mph 90% 0 in 0 W/m2
02:04 49.1 °F 46.2 °F 29.9 in Calm   1 mph 90% 0 in 0 W/m2
02:09 48.9 °F 46 °F 29.9 in Calm     90% 0 in 0 W/m2
02:14 48.9 °F 46.4 °F 29.9 in Calm     91% 0 in 0 W/m2
02:19 48.9 °F 46.4 °F 29.9 in Calm     91% 0 in 0 W/m2
02:24 48.9 °F 46.4 °F 29.9 in NW 2 mph 2 mph 91% 0 in 0 W/m2
02:29 48.9 °F 46.4 °F 29.9 in Calm   1 mph 91% 0 in 0 W/m2
02:34 48.9 °F 46.4 °F 29.9 in NW 0.9 mph 2 mph 91% 0 in 0 W/m2
02:39 49.3 °F 46.8 °F 29.9 in NW 0.9 mph 2 mph 91% 0 in 0 W/m2
02:44 49.3 °F 46.8 °F 29.9 in Calm     91% 0 in 0 W/m2
02:49 49.5 °F 46.9 °F 29.9 in NW 0.9 mph 3 mph 91% 0 in 0 W/m2
02:54 49.5 °F 46.9 °F 29.9 in NW 0.9 mph 2 mph 91% 0 in 0 W/m2
02:59 49.6 °F 47.1 °F 29.9 in NW 0.9 mph 3 mph 91% 0 in 0 W/m2
03:04 49.6 °F 47.1 °F 29.9 in Calm   1 mph 91% 0 in 0 W/m2
03:09 49.6 °F 47.1 °F 29.9 in WNW 2 mph 3 mph 91% 0 in 0 W/m2
03:14 49.8 °F 47.3 °F 29.9 in Calm     91% 0 in 0 W/m2
03:19 49.8 °F 47.3 °F 29.9 in WNW 2 mph 2 mph 91% 0 in 0 W/m2
03:24 49.8 °F 47.3 °F 29.9 in WNW 0.9 mph 2 mph 91% 0 in 0 W/m2
03:29 49.8 °F 47.3 °F 29.9 in Calm   1 mph 91% 0 in 0 W/m2
03:34 49.8 °F 47.3 °F 29.9 in WNW 0.9 mph 1 mph 91% 0 in 0 W/m2
03:39 49.8 °F 47.3 °F 29.9 in Calm     91% 0 in 0 W/m2
03:44 49.8 °F 47.3 °F 29.9 in Calm     91% 0 in 0 W/m2
03:49 49.6 °F 47.1 °F 29.9 in Calm     91% 0 in 0 W/m2
03:54 49.6 °F 47.1 °F 29.9 in Calm     91% 0 in 0 W/m2
03:59 49.5 °F 46.9 °F 29.9 in Calm     91% 0 in 0 W/m2
04:04 49.3 °F 46.8 °F 29.9 in Calm     91% 0 in 0 W/m2
04:09 48.9 °F 46.4 °F 29.9 in Calm     91% 0 in 0 W/m2
04:14 48.9 °F 46.4 °F 29.9 in Calm     91% 0 in 0 W/m2
04:19 48.7 °F 46.2 °F 29.9 in Calm     91% 0 in 0 W/m2
04:24 48.6 °F 46 °F 29.9 in Calm     91% 0 in 0 W/m2
04:29 48.4 °F 46.2 °F 29.9 in Calm     92% 0 in 0 W/m2
04:34 48.4 °F 46.2 °F 29.9 in Calm     92% 0 in 0 W/m2
04:39 48 °F 45.9 °F 29.9 in Calm     92% 0 in 0 W/m2
04:44 48 °F 45.9 °F 29.9 in Calm     92% 0 in 0 W/m2
04:49 47.8 °F 45.7 °F 29.9 in Calm     92% 0 in 0 W/m2
04:54 47.7 °F 45.5 °F 29.9 in Calm     92% 0 in 0 W/m2
04:59 47.7 °F 45.5 °F 29.9 in Calm     92% 0 in 0 W/m2
05:04 47.7 °F 45.5 °F 30 in Calm     92% 0 in 0 W/m2
05:09 47.5 °F 45.5 °F 30 in Calm     93% 0 in 0 W/m2
05:14 47.5 °F 45.5 °F 30 in Calm     93% 0 in 0 W/m2
05:19 47.5 °F 45.5 °F 30 in Calm     93% 0 in 0 W/m2
05:29 47.1 °F 45.1 °F 30 in Calm     93% 0 in 0 W/m2
05:34 47.1 °F 45.1 °F 30 in Calm     93% 0 in 0 W/m2
05:39 47.1 °F 45.1 °F 30 in Calm     93% 0 in 0 W/m2
05:44 46.9 °F 45 °F 30 in Calm     93% 0 in 5 W/m2
05:49 46.9 °F 45 °F 30 in Calm     93% 0 in 7 W/m2
05:54 46.8 °F 44.8 °F 30 in Calm     93% 0 in 9 W/m2
05:59 46.8 °F 44.8 °F 30 in Calm     93% 0 in 11 W/m2
06:04 46.8 °F 44.8 °F 30 in Calm     93% 0 in 12 W/m2
06:09 46.9 °F 45.3 °F 30 in Calm     94% 0 in 14 W/m2
06:14 46.9 °F 45.3 °F 30 in Calm     94% 0 in 16 W/m2
06:19 46.9 °F 45.3 °F 30 in Calm     94% 0 in 18 W/m2
06:24 46.9 °F 45.3 °F 30 in Calm     94% 0 in 19 W/m2
06:29 46.9 °F 45.3 °F 30 in Calm     94% 0 in 21 W/m2
06:34 47.1 °F 45.5 °F 30 in Calm     94% 0 in 23 W/m2
06:39 47.1 °F 45.5 °F 30 in Calm     94% 0 in 26 W/m2
06:44 47.1 °F 45.5 °F 30 in Calm     94% 0 in 25 W/m2
06:49 47.1 °F 45.5 °F 30 in Calm     94% 0 in 26 W/m2
06:54 47.5 °F 45.9 °F 30 in Calm     94% 0 in 25 W/m2
06:59 47.5 °F 45.9 °F 30 in Calm     94% 0 in 26 W/m2
07:04 47.7 °F 46 °F 30 in Calm     94% 0 in 28 W/m2
07:09 47.8 °F 46.2 °F 30 in Calm     94% 0 in 42 W/m2
07:14 48.2 °F 46.6 °F 30 in Calm   1 mph 94% 0 in 128 W/m2
07:19 49.3 °F 47.8 °F 30 in WNW 0.9 mph 2 mph 95% 0 in 144 W/m2
07:24 50.4 °F 48.9 °F 30 in Calm   1 mph 95% 0 in 156 W/m2
07:29 51.4 °F 49.5 °F 30 in Calm   3 mph 93% 0 in 174 W/m2
07:34 53.1 °F 50.2 °F 30 in Calm   2 mph 90% 0 in 186 W/m2
07:39 54.5 °F 50.7 °F 30 in Calm   3 mph 87% 0 in 200 W/m2
07:44 55.6 °F 50.9 °F 30 in ENE 0.9 mph 2 mph 84% 0 in 216 W/m2
07:49 56.1 °F 50.7 °F 30 in NE 0.9 mph 2 mph 82% 0 in 230 W/m2
07:54 56.5 °F 50.4 °F 30 in Calm   1 mph 80% 0 in 244 W/m2
07:59 56.8 °F 50.7 °F 30 in Calm     80% 0 in 258 W/m2
08:04 57.6 °F 50.4 °F 30 in WSW 2.9 mph 4 mph 77% 0 in 236 W/m2
08:09 57.4 °F 50.2 °F 30 in West 2 mph 2 mph 77% 0 in 128 W/m2
08:14 57 °F 49.8 °F 30 in NW 4 mph 4 mph 77% 0 in 56 W/m2
08:19 56.8 °F 50 °F 30 in NW 2.9 mph 4 mph 78% 0 in 44 W/m2
08:24 56.7 °F 49.5 °F 30 in NW 0.9 mph 2 mph 77% 0 in 44 W/m2
08:29 56.8 °F 49.6 °F 30 in Calm   4 mph 77% 0 in 44 W/m2
08:34 57 °F 49.8 °F 30 in West 2 mph 3 mph 77% 0 in 42 W/m2
08:39 57.4 °F 49.5 °F 30 in WNW 2 mph 5 mph 75% 0 in 42 W/m2
08:44 57.6 °F 49.6 °F 30 in NW 0.9 mph 3 mph 75% 0 in 44 W/m2
08:49 57.9 °F 49.6 °F 30 in NW 2 mph 4 mph 74% 0 in 44 W/m2
08:54 57.9 °F 49.6 °F 30 in West 4 mph 5 mph 74% 0 in 44 W/m2
08:59 58.3 °F 50 °F 30 in NW 4 mph 7 mph 74% 0 in 44 W/m2
09:04 58.3 °F 49.6 °F 30 in NW 4 mph 4 mph 73% 0 in 42 W/m2
09:09 58.5 °F 49.5 °F 30 in West 2 mph 7 mph 72% 0 in 42 W/m2
09:14 58.5 °F 49.5 °F 30 in West 2 mph 5 mph 72% 0 in 42 W/m2
09:19 58.8 °F 49.5 °F 30 in NNW 4 mph 7 mph 71% 0 in 42 W/m2
09:24 58.6 °F 49.3 °F 30 in West 6 mph 9 mph 71% 0 in 44 W/m2
09:29 58.6 °F 49.6 °F 30 in Calm   1 mph 72% 0 in 46 W/m2
09:34 59 °F 50 °F 30 in WNW 0.9 mph 10 mph 72% 0 in 46 W/m2
09:39 59.4 °F 50.4 °F 30 in SSW 2 mph 8 mph 72% 0 in 47 W/m2
09:44 59.5 °F 50.9 °F 30 in West 2 mph 9 mph 73% 0 in 53 W/m2
09:49 59.7 °F 50 °F 30 in West 4 mph 8 mph 70% 0 in 102 W/m2
09:54 59.7 °F 50 °F 30 in West 2 mph 7 mph 70% 0 in 93 W/m2
09:59 59.7 °F 49.5 °F 30 in NW 2 mph 5 mph 69% 0 in 67 W/m2
10:04 59.7 °F 50 °F 30 in WNW 0.9 mph 7 mph 70% 0 in 113 W/m2
10:09 60.1 °F 49.8 °F 30 in WNW 0.9 mph 7 mph 69% 0 in 104 W/m2
10:14 60.1 °F 49.8 °F 30 in WSW 2.9 mph 5 mph 69% 0 in 661 W/m2
10:19 60.4 °F 49.8 °F 30 in WNW 6.9 mph 9 mph 68% 0 in 663 W/m2
10:24 60.6 °F 50 °F 30 in SSW 0.9 mph 5 mph 68% 0 in 696 W/m2
10:29 60.8 °F 49.5 °F 30 in WNW 4 mph 9 mph 66% 0 in 728 W/m2
10:34 60.8 °F 49.8 °F 30 in NW 4.9 mph 8 mph 67% 0 in 742 W/m2
10:39 60.6 °F 49.6 °F 30 in West 4 mph 10 mph 67% 0 in 401 W/m2
10:44 60.8 °F 49.8 °F 30 in NW 2.9 mph 5 mph 67% 0 in 830 W/m2
10:49 61 °F 49.5 °F 30 in NW 4.9 mph 10 mph 66% 0 in 93 W/m2
10:54 60.4 °F 49.5 °F 30 in NE 0.9 mph 4 mph 67% 0 in 773 W/m2
10:59 60.8 °F 49.5 °F 30 in West 2 mph 6 mph 66% 0 in 877 W/m2
11:04 61.3 °F 49.1 °F 30 in NNW 2.9 mph 6 mph 64% 0 in 861 W/m2
11:09 61.3 °F 49.5 °F 30 in WSW 0.9 mph 6 mph 65% 0 in 803 W/m2
11:14 61.3 °F 48.2 °F 30 in SW 2 mph 8 mph 62% 0 in 823 W/m2
11:19 61.5 °F 49.3 °F 30 in Calm   3 mph 64% 0 in 868 W/m2
11:24 62.2 °F 49.5 °F 30 in West 6.9 mph 7 mph 63% 0 in 921 W/m2
11:29 63 °F 49.8 °F 30 in NNW 2 mph 6 mph 62% 0 in 953 W/m2
11:34 62.8 °F 49.6 °F 30 in North 2.9 mph 6 mph 62% 0 in 925 W/m2
11:39 63.1 °F 49.5 °F 30 in NNE 2.9 mph 5 mph 61% 0 in 951 W/m2
11:44 63 °F 49.3 °F 30 in NW 2.9 mph 7 mph 61% 0 in 977 W/m2
11:49 63.1 °F 49.5 °F 30 in West 4 mph 7 mph 61% 0 in 1039 W/m2
11:54 63.3 °F 49.6 °F 30 in West 6 mph 8 mph 61% 0 in 942 W/m2
11:59 63.1 °F 49.8 °F 30 in WSW 4 mph 6 mph 62% 0 in 942 W/m2
12:04 63 °F 49.8 °F 30 in WNW 6.9 mph 11 mph 62% 0 in 1081 W/m2
12:09 62.8 °F 49.6 °F 30 in West 2.9 mph 8 mph 62% 0 in 336 W/m2
12:14 63.3 °F 50.5 °F 30 in WSW 8.1 mph 8 mph 63% 0 in 1034 W/m2
12:19 63.9 °F 50.5 °F 30 in NNW 4 mph 8 mph 62% 0 in 1035 W/m2
12:24 64.6 °F 50 °F 30 in WNW 2.9 mph 4 mph 59% 0 in 1071 W/m2
12:29 64.8 °F 50.2 °F 30 in West 8.1 mph 13 mph 59% 0 in 1078 W/m2
12:34 64.2 °F 50 °F 30 in WNW 2 mph 10 mph 60% 0 in 1079 W/m2
12:39 64.4 °F 49.3 °F 30 in WNW 6.9 mph 13 mph 58% 0 in 204 W/m2
12:44 64 °F 48.9 °F 30 in WNW 6.9 mph 7 mph 58% 0 in 149 W/m2
12:49 64.2 °F 48.7 °F 30 in West 8.9 mph 11 mph 57% 0 in 997 W/m2
12:54 64.2 °F 48.7 °F 30 in SW 4 mph 8 mph 57% 0 in 160 W/m2
12:59 63.7 °F 48.6 °F 30 in West 8.1 mph 12 mph 58% 0 in 172 W/m2
13:04 63.5 °F 48 °F 30 in West 6 mph 9 mph 57% 0 in 135 W/m2
13:09 63.9 °F 48.7 °F 30 in NW 2.9 mph 12 mph 58% 0 in 784 W/m2
13:14 63.9 °F 48.7 °F 30 in West 6.9 mph 11 mph 58% 0 in 123 W/m2
13:19 63.9 °F 48.7 °F 30 in West 6.9 mph 9 mph 58% 0 in 181 W/m2
13:24 64 °F 48.9 °F 30 in NNW 2.9 mph 9 mph 58% 0 in 981 W/m2
13:29 64.8 °F 48.7 °F 30 in NW 4.9 mph 7 mph 56% 0 in 165 W/m2
13:34 65.1 °F 48 °F 30 in NW 2 mph 11 mph 54% 0 in 965 W/m2
13:39 65.5 °F 46.9 °F 30 in NW 6 mph 12 mph 51% 0 in 225 W/m2
13:44 65.5 °F 47.5 °F 30 in West 6 mph 10 mph 52% 0 in 211 W/m2
13:49 65.5 °F 47.8 °F 30 in NW 4.9 mph 13 mph 53% 0 in 1048 W/m2
13:54 65.8 °F 48.7 °F 30 in NW 8.1 mph 12 mph 54% 0 in 1004 W/m2
13:59 65.5 °F 47.5 °F 30 in West 4 mph 13 mph 52% 0 in 188 W/m2
14:04 65.3 °F 48.2 °F 30 in WNW 2 mph 12 mph 54% 0 in 149 W/m2
14:09 65.5 °F 48.4 °F 30 in WNW 4.9 mph 11 mph 54% 0 in 1063 W/m2
14:14 65.5 °F 48.4 °F 30 in West 6 mph 11 mph 54% 0 in 160 W/m2
14:19 65.5 °F 47.8 °F 30 in SW 2.9 mph 10 mph 53% 0 in 998 W/m2
14:24 66 °F 47.8 °F 30 in West 6 mph 11 mph 52% 0 in 983 W/m2
14:29 66 °F 47.3 °F 30 in West 6.9 mph 12 mph 51% 0 in 199 W/m2
14:34 66 °F 47.8 °F 30 in WNW 4.9 mph 11 mph 52% 0 in 954 W/m2
14:39 66.4 °F 48.2 °F 30 in SW 8.1 mph 12 mph 52% 0 in 976 W/m2
14:44 66.6 °F 47.3 °F 30 in WSW 8.1 mph 10 mph 50% 0 in 1018 W/m2
14:49 66.9 °F 48.2 °F 30 in WSW 8.9 mph 9 mph 51% 0 in 993 W/m2
14:54 67.3 °F 48.6 °F 30 in West 6 mph 10 mph 51% 0 in 916 W/m2
14:59 67.3 °F 48.6 °F 30 in NNW 4.9 mph 8 mph 51% 0 in 279 W/m2
15:04 67.3 °F 48.6 °F 30 in South 2 mph 10 mph 51% 0 in 1021 W/m2
15:09 67.3 °F 48 °F 30 in WSW 2.9 mph 7 mph 50% 0 in 290 W/m2
15:14 66.9 °F 48.2 °F 30 in WNW 4.9 mph 10 mph 51% 0 in 214 W/m2
15:19 66.6 °F 48.4 °F 30 in NW 8.9 mph 11 mph 52% 0 in 390 W/m2
15:24 66.6 °F 49.5 °F 30 in West 6 mph 10 mph 54% 0 in 969 W/m2
15:29 66.7 °F 48.6 °F 30 in West 6.9 mph 10 mph 52% 0 in 896 W/m2
15:34 66.9 °F 48.7 °F 30 in WNW 4 mph 11 mph 52% 0 in 125 W/m2
15:39 66.7 °F 48.6 °F 30 in West 2.9 mph 9 mph 52% 0 in 977 W/m2
15:44 67.5 °F 49.3 °F 30 in WNW 2.9 mph 9 mph 52% 0 in 928 W/m2
15:49 67.8 °F 49.6 °F 30 in WSW 8.1 mph 10 mph 52% 0 in 499 W/m2
15:54 67.5 °F 48.2 °F 30 in WSW 4.9 mph 10 mph 50% 0 in 220 W/m2
15:59 67.3 °F 49.6 °F 30 in NW 2.9 mph 8 mph 53% 0 in 854 W/m2
16:04 67.6 °F 49.5 °F 30 in WNW 4 mph 11 mph 52% 0 in 214 W/m2
16:09 67.8 °F 49.1 °F 30 in NW 4 mph 11 mph 51% 0 in 842 W/m2
16:15 67.5 °F 49.3 °F 30 in West 6.9 mph 9 mph 52% 0 in 141 W/m2
16:20 66.9 °F 49.3 °F 30 in WNW 2.9 mph 11 mph 53% 0 in 188 W/m2
16:25 66.7 °F 48.6 °F 30 in WNW 4.9 mph 8 mph 52% 0 in 213 W/m2
16:30 66.9 °F 49.3 °F 30 in NW 4 mph 9 mph 53% 0 in 891 W/m2
16:35 67.6 °F 49.5 °F 30 in West 6 mph 7 mph 52% 0 in 251 W/m2
16:40 67.6 °F 48.4 °F 30 in SW 6 mph 9 mph 50% 0 in 195 W/m2
16:45 67.3 °F 48.6 °F 30 in NW 2.9 mph 7 mph 51% 0 in 761 W/m2
16:50 67.6 °F 48.9 °F 30 in WNW 4 mph 11 mph 51% 0 in 652 W/m2
16:55 68.2 °F 48.9 °F 30 in NNW 2.9 mph 5 mph 50% 0 in 693 W/m2
17:00 68.5 °F 48.6 °F 30 in NW 6 mph 7 mph 49% 0 in 677 W/m2
17:05 68.4 °F 48.9 °F 30 in West 2 mph 5 mph 50% 0 in 193 W/m2
17:10 68.2 °F 49.3 °F 30 in West 2.9 mph 7 mph 51% 0 in 680 W/m2
17:15 68.2 °F 48.9 °F 30 in WNW 2.9 mph 9 mph 50% 0 in 181 W/m2
17:20 67.6 °F 48.9 °F 30 in WNW 4.9 mph 5 mph 51% 0 in 257 W/m2
17:25 67.3 °F 49.6 °F 30 in WSW 4 mph 9 mph 53% 0 in 584 W/m2
17:30 67.8 °F 49.6 °F 30 in WNW 6.9 mph 11 mph 52% 0 in 578 W/m2
17:35 68.4 °F 50.5 °F 30 in NW 6.9 mph 7 mph 53% 0 in 582 W/m2
17:40 68.5 °F 49.6 °F 30 in WNW 4 mph 11 mph 51% 0 in 571 W/m2
17:45 68.5 °F 49.6 °F 30 in WSW 8.1 mph 10 mph 51% 0 in 526 W/m2
17:50 68.5 °F 49.6 °F 30 in WNW 6.9 mph 7 mph 51% 0 in 517 W/m2
17:55 68.5 °F 49.6 °F 30 in NW 2 mph 4 mph 51% 0 in 265 W/m2
18:00 68.2 °F 49.8 °F 30 in West 2 mph 14 mph 52% 0 in 483 W/m2
18:05 67.6 °F 49.5 °F 30 in West 6.9 mph 8 mph 52% 0 in 167 W/m2
18:10 67.5 °F 49.3 °F 30 in WSW 4 mph 14 mph 52% 0 in 487 W/m2
18:15 67.8 °F 49.6 °F 30 in Calm   7 mph 52% 0 in 135 W/m2
18:20 67.6 °F 49.5 °F 30 in West 6 mph 8 mph 52% 0 in 504 W/m2
18:25 68 °F 49.3 °F 30 in West 6.9 mph 15 mph 51% 0 in 475 W/m2
18:30 67.6 °F 48.9 °F 30 in WSW 4.9 mph 8 mph 51% 0 in 95 W/m2
18:40 66.9 °F 49.3 °F 30 in WSW 8.9 mph 10 mph 53% 0 in 178 W/m2
18:45 66.7 °F 49.1 °F 30 in WNW 4 mph 7 mph 53% 0 in 86 W/m2
18:50 66.7 °F 49.6 °F 30 in WNW 0.9 mph 7 mph 54% 0 in 144 W/m2
18:55 67.5 °F 50.7 °F 30 in NW 2 mph 3 mph 55% 0 in 144 W/m2
19:00 68.2 °F 49.8 °F 30 in WSW 2 mph 5 mph 52% 0 in 111 W/m2
19:05 68.2 °F 47.1 °F 30 in SW 6.9 mph 13 mph 47% 0 in 91 W/m2
19:10 67.8 °F 46.9 °F 30 in NW 10.1 mph 11 mph 47% 0 in 70 W/m2
19:15 67.5 °F 46.6 °F 30 in NW 6 mph 12 mph 47% 0 in 67 W/m2
19:20 66.6 °F 46.2 °F 30 in WSW 2.9 mph 7 mph 48% 0 in 69 W/m2
19:25 66.2 °F 45.9 °F 30 in West 8.1 mph 12 mph 48% 0 in 88 W/m2
19:35 65.8 °F 46.8 °F 30 in West 2.9 mph 7 mph 50% 0 in 107 W/m2
19:40 65.8 °F 46.8 °F 30 in West 6 mph 7 mph 50% 0 in 84 W/m2
19:45 65.8 °F 46.8 °F 30 in West 6.9 mph 11 mph 50% 0 in 76 W/m2
19:50 65.7 °F 46 °F 30 in West 8.1 mph 12 mph 49% 0 in 69 W/m2
19:55 65.5 °F 46.4 °F 30.1 in West 6 mph 7 mph 50% 0 in 58 W/m2
20:00 65.5 °F 46.4 °F 30.1 in WNW 4 mph 4 mph 50% 0 in 56 W/m2
20:05 65.5 °F 46.4 °F 30.1 in West 6 mph 8 mph 50% 0 in 56 W/m2
20:10 65.3 °F 46.2 °F 30.1 in West 4 mph 8 mph 50% 0 in 53 W/m2
20:15 65.1 °F 46.6 °F 30.1 in West 4 mph 6 mph 51% 0 in 49 W/m2
20:20 65.1 °F 46 °F 30.1 in West 6 mph 7 mph 50% 0 in 39 W/m2
20:25 64.9 °F 45.9 °F 30.1 in WNW 2 mph 6 mph 50% 0 in 21 W/m2
20:30 64.9 °F 45.9 °F 30.1 in West 2.9 mph 9 mph 50% 0 in 19 W/m2
20:35 64.8 °F 45.7 °F 30.1 in NNW 4 mph 9 mph 50% 0 in 21 W/m2
20:40 64.8 °F 45.7 °F 30.1 in West 4 mph 10 mph 50% 0 in 26 W/m2
20:45 64.6 °F 46 °F 30.1 in WSW 4 mph 7 mph 51% 0 in 26 W/m2
20:50 64.4 °F 45.9 °F 30.1 in West 6.9 mph 10 mph 51% 0 in 28 W/m2
20:55 64.4 °F 46.4 °F 30.1 in West 2.9 mph 4 mph 52% 0 in 26 W/m2
21:00 64.2 °F 46.2 °F 30.1 in West 2.9 mph 8 mph 52% 0 in 26 W/m2
21:05 64 °F 46 °F 30.1 in SW 2.9 mph 8 mph 52% 0 in 23 W/m2
21:10 64 °F 46.6 °F 30.1 in WNW 2.9 mph 5 mph 53% 0 in 23 W/m2
21:15 63.9 °F 46.4 °F 30.1 in NW 4 mph 6 mph 53% 0 in 21 W/m2
21:20 63.9 °F 46.4 °F 30.1 in WNW 2 mph 4 mph 53% 0 in 14 W/m2
21:25 63.7 °F 46.8 °F 30.1 in West 2 mph 5 mph 54% 0 in 9 W/m2
21:30 63.7 °F 46.8 °F 30.1 in West 2 mph 3 mph 54% 0 in 0 W/m2
21:35 63.5 °F 46.6 °F 30.1 in West 2 mph 6 mph 54% 0 in 0 W/m2
21:40 63.3 °F 46.4 °F 30.1 in WNW 2.9 mph 7 mph 54% 0 in 0 W/m2
21:45 63.1 °F 46.2 °F 30.1 in West 4 mph 8 mph 54% 0 in 0 W/m2
21:50 63.1 °F 46.8 °F 30.1 in Calm   3 mph 55% 0 in 0 W/m2
21:55 63 °F 46.6 °F 30.1 in NW 2 mph 8 mph 55% 0 in 0 W/m2
22:00 63 °F 46.6 °F 30.1 in West 0.9 mph 7 mph 55% 0 in 0 W/m2
22:05 62.8 °F 46.9 °F 30.1 in West 0.9 mph 5 mph 56% 0 in 0 W/m2
22:10 62.8 °F 46.9 °F 30.1 in WNW 4 mph 7 mph 56% 0 in 0 W/m2
22:15 62.6 °F 47.1 °F 30.1 in NW 2 mph 2 mph 57% 0 in 0 W/m2
22:20 62.4 °F 46.9 °F 30.1 in WNW 4 mph 7 mph 57% 0 in 0 W/m2
22:25 62.4 °F 46.9 °F 30.1 in WNW 0.9 mph 3 mph 57% 0 in 0 W/m2
22:30 62.4 °F 47.5 °F 30.1 in WNW 0.9 mph 2 mph 58% 0 in 0 W/m2
22:35 62.2 °F 47.3 °F 30.1 in West 0.9 mph 2 mph 58% 0 in 0 W/m2
22:40 62.2 °F 47.3 °F 30.1 in NW 2.9 mph 8 mph 58% 0 in 0 W/m2
22:45 62.1 °F 47.5 °F 30.1 in WNW 0.9 mph 3 mph 59% 0 in 0 W/m2
22:50 62.1 °F 47.5 °F 30.1 in NW 2 mph 8 mph 59% 0 in 0 W/m2
22:55 62.1 °F 47.5 °F 30.1 in NW 2 mph 4 mph 59% 0 in 0 W/m2
23:00 61.9 °F 47.5 °F 30.1 in West 2 mph 6 mph 59% 0 in 0 W/m2
23:06 61.7 °F 47.7 °F 30.1 in NNW 2 mph 4 mph 60% 0 in 0 W/m2
23:11 61.5 °F 47.5 °F 30.1 in Calm   6 mph 60% 0 in 0 W/m2
23:16 61.3 °F 47.3 °F 30.1 in NW 2 mph 3 mph 60% 0 in 0 W/m2
23:21 61.3 °F 47.8 °F 30.1 in WNW 2 mph 6 mph 61% 0 in 0 W/m2
23:26 61.3 °F 47.8 °F 30.1 in West 2.9 mph 5 mph 61% 0 in 0 W/m2
23:31 61.2 °F 47.7 °F 30.1 in NW 2.9 mph 6 mph 61% 0 in 0 W/m2
23:36 61.2 °F 47.7 °F 30.1 in NW 2.9 mph 5 mph 61% 0 in 0 W/m2
23:41 61.2 °F 48 °F 30.1 in WNW 0.9 mph 4 mph 62% 0 in 0 W/m2
23:46 61.2 °F 48 °F 30.1 in NW 2.9 mph 7 mph 62% 0 in 0 W/m2
23:51 61.2 °F 48 °F 30.1 in West 2 mph 6 mph 62% 0 in 0 W/m2
23:56 61.2 °F 48 °F 30.1 in West 6 mph 6 mph 62% 0 in 0 W/m2
Juneau County Weather
Compliments of Weather Underground - 4 mb